sensor_id;sensor_type;location;lat;lon;timestamp;P1;durP1;ratioP1;P2;durP2;ratioP2
31686;SDS011;18285;51.330;4.946;2023-05-19T00:01:13;4.82;;;2.50;;
31686;SDS011;18285;51.330;4.946;2023-05-19T00:25:25;3.73;;;2.53;;
31686;SDS011;18285;51.330;4.946;2023-05-19T00:49:36;3.67;;;2.60;;
31686;SDS011;18285;51.330;4.946;2023-05-19T01:13:47;5.53;;;3.25;;
31686;SDS011;18285;51.330;4.946;2023-05-19T01:37:59;4.03;;;2.55;;
31686;SDS011;18285;51.330;4.946;2023-05-19T02:02:24;3.50;;;2.33;;
31686;SDS011;18285;51.330;4.946;2023-05-19T02:26:45;3.92;;;2.22;;
31686;SDS011;18285;51.330;4.946;2023-05-19T02:50:55;3.92;;;2.03;;
31686;SDS011;18285;51.330;4.946;2023-05-19T03:15:06;3.50;;;2.42;;
31686;SDS011;18285;51.330;4.946;2023-05-19T03:39:17;2.13;;;1.85;;
31686;SDS011;18285;51.330;4.946;2023-05-19T04:03:28;3.92;;;1.95;;
31686;SDS011;18285;51.330;4.946;2023-05-19T04:27:38;2.38;;;1.77;;
31686;SDS011;18285;51.330;4.946;2023-05-19T04:51:49;3.45;;;2.10;;
31686;SDS011;18285;51.330;4.946;2023-05-19T05:16:01;3.35;;;2.10;;
31686;SDS011;18285;51.330;4.946;2023-05-19T05:40:15;3.50;;;2.08;;
31686;SDS011;18285;51.330;4.946;2023-05-19T06:04:27;4.85;;;2.13;;
31686;SDS011;18285;51.330;4.946;2023-05-19T06:28:38;2.85;;;2.05;;
31686;SDS011;18285;51.330;4.946;2023-05-19T06:52:49;3.08;;;1.88;;
31686;SDS011;18285;51.330;4.946;2023-05-19T07:17:00;4.28;;;2.00;;
31686;SDS011;18285;51.330;4.946;2023-05-19T07:41:10;3.88;;;2.00;;
31686;SDS011;18285;51.330;4.946;2023-05-19T08:05:21;10.18;;;4.63;;
31686;SDS011;18285;51.330;4.946;2023-05-19T08:29:32;9.98;;;4.47;;
31686;SDS011;18285;51.330;4.946;2023-05-19T08:53:45;7.40;;;3.40;;
31686;SDS011;18285;51.330;4.946;2023-05-19T09:18:21;6.78;;;2.25;;
31686;SDS011;18285;51.330;4.946;2023-05-19T09:42:30;6.95;;;2.10;;
31686;SDS011;18285;51.330;4.946;2023-05-19T10:06:48;6.05;;;2.40;;
31686;SDS011;18285;51.330;4.946;2023-05-19T10:31:04;8.40;;;2.08;;
31686;SDS011;18285;51.330;4.946;2023-05-19T10:55:17;7.63;;;2.20;;
31686;SDS011;18285;51.330;4.946;2023-05-19T11:19:56;4.97;;;2.00;;
31686;SDS011;18285;51.330;4.946;2023-05-19T11:44:09;5.18;;;1.98;;
31686;SDS011;18285;51.330;4.946;2023-05-19T12:08:21;5.33;;;2.20;;
31686;SDS011;18285;51.330;4.946;2023-05-19T12:32:32;5.03;;;1.70;;
31686;SDS011;18285;51.330;4.946;2023-05-19T12:56:48;6.22;;;1.92;;
31686;SDS011;18285;51.330;4.946;2023-05-19T13:21:02;4.22;;;1.73;;
31686;SDS011;18285;51.330;4.946;2023-05-19T13:45:14;2.30;;;1.27;;
31686;SDS011;18285;51.330;4.946;2023-05-19T14:09:25;2.58;;;1.15;;
31686;SDS011;18285;51.330;4.946;2023-05-19T14:33:36;3.83;;;1.40;;
31686;SDS011;18285;51.330;4.946;2023-05-19T14:57:46;3.75;;;1.50;;
31686;SDS011;18285;51.330;4.946;2023-05-19T15:21:57;4.68;;;1.55;;
31686;SDS011;18285;51.330;4.946;2023-05-19T15:46:08;3.13;;;1.60;;
31686;SDS011;18285;51.330;4.946;2023-05-19T16:10:20;4.40;;;1.63;;
31686;SDS011;18285;51.330;4.946;2023-05-19T16:34:30;4.68;;;2.00;;
31686;SDS011;18285;51.330;4.946;2023-05-19T16:58:41;5.82;;;2.00;;
31686;SDS011;18285;51.330;4.946;2023-05-19T17:22:52;5.75;;;1.60;;
31686;SDS011;18285;51.330;4.946;2023-05-19T17:47:02;7.15;;;2.05;;
31686;SDS011;18285;51.330;4.946;2023-05-19T18:11:14;23.40;;;3.35;;
31686;SDS011;18285;51.330;4.946;2023-05-19T18:35:26;6.13;;;2.40;;
31686;SDS011;18285;51.330;4.946;2023-05-19T18:59:36;7.35;;;2.42;;
31686;SDS011;18285;51.330;4.946;2023-05-19T19:23:47;10.65;;;2.30;;
31686;SDS011;18285;51.330;4.946;2023-05-19T19:47:57;14.52;;;3.40;;
31686;SDS011;18285;51.330;4.946;2023-05-19T20:12:08;9.07;;;2.25;;
31686;SDS011;18285;51.330;4.946;2023-05-19T20:36:19;6.07;;;2.08;;
31686;SDS011;18285;51.330;4.946;2023-05-19T21:00:30;5.30;;;1.90;;
31686;SDS011;18285;51.330;4.946;2023-05-19T21:24:41;4.85;;;2.17;;
31686;SDS011;18285;51.330;4.946;2023-05-19T21:48:51;4.38;;;2.20;;
31686;SDS011;18285;51.330;4.946;2023-05-19T22:13:02;3.70;;;2.25;;
31686;SDS011;18285;51.330;4.946;2023-05-19T22:37:13;4.25;;;1.95;;
31686;SDS011;18285;51.330;4.946;2023-05-19T23:01:24;5.28;;;2.47;;
31686;SDS011;18285;51.330;4.946;2023-05-19T23:25:34;3.28;;;1.80;;
31686;SDS011;18285;51.330;4.946;2023-05-19T23:49:45;3.92;;;2.08;;
